Darstellungsparameter: Aktuell verwendete Einstellungen:
Skalierung der Graphiken ... ?
xyx+y,   Skalierungsfaktor:      Skalierung: Modus: x, Faktor: 1
Darstellungszeitraum ... ?
Vom - - bis: - -   Zeitraum: 13.09.2019 - 15.09.2019
Min/Max/Avg-Anzeige ... ?
Zeige MMA aktuell
Zeige MMA Monat
Zeige MMA alles
Zeige --A aktuell
Zeige --A Monat
Zeige --A alles
Keine MMA-Anzeige
MMA:
Keine MMA-Graphiken
MMA-Basis: 13.09.2019 - 15.09.2019
Quicknavigation für Darstellung... ?
Tage:      1T, 2T, 3T, 5T -1T -2T -3T -5T +1T +2T +3T +5T
Wochen: 1W, 2W, 3W -1W -2W -3W +1W +2W +3W
Monate: 1M, 3M, 6M -1M -3M -6M +1M +3M +6M
Jahre:    1J, 3J, 5J, 10J -1J -3J -5J -10J +1J +3J +5J +10J
Nutze für die Darstellung ... ?
Originaldaten oder Mittelwerte auf ...
Stundenbasis Tagesbasis Wochenbasis
Monatsbasis Jahresbasis      Datenbasis: Original-Daten
Darstellen als:
Statistik (Auto) Statistik J:M      Darstellung:
Zur Graphik,    zurück zur Übersicht aller Sensoren.
 
Tabellarische Datenbersicht: ?
 
Sensor: Nr:Datum:Temp:Feuchte:Taupunkt:
Aussen-T/F 1 13-09-2019 00:00:00 16.4 C 89 % 14.58 C
2 13-09-2019 00:05:00 16.3 C 89 % 14.48 C
3 13-09-2019 00:10:00 16.2 C 89 % 14.39 C
4 13-09-2019 00:15:00 16.2 C 90 % 14.56 C
5 13-09-2019 00:20:00 16.1 C 90 % 14.46 C
6 13-09-2019 00:25:00 16 C 90 % 14.36 C
7 13-09-2019 00:30:00 15.9 C 90 % 14.26 C
8 13-09-2019 00:35:00 15.8 C 90 % 14.16 C
9 13-09-2019 00:40:00 15.8 C 91 % 14.33 C
10 13-09-2019 00:45:00 15.7 C 91 % 14.24 C
11 13-09-2019 00:50:00 15.7 C 91 % 14.24 C
12 13-09-2019 00:55:00 15.7 C 91 % 14.24 C
13 13-09-2019 01:00:00 15.6 C 91 % 14.14 C
14 13-09-2019 01:05:00 15.6 C 91 % 14.14 C
15 13-09-2019 01:10:00 15.6 C 92 % 14.31 C
16 13-09-2019 01:15:00 15.5 C 92 % 14.21 C
17 13-09-2019 01:20:00 15.5 C 92 % 14.21 C
18 13-09-2019 01:25:00 15.6 C 92 % 14.31 C
19 13-09-2019 01:30:00 15.7 C 92 % 14.4 C
20 13-09-2019 01:35:00 15.6 C 92 % 14.31 C
21 13-09-2019 01:40:00 15.6 C 92 % 14.31 C
22 13-09-2019 01:45:00 15.5 C 92 % 14.21 C
23 13-09-2019 01:50:00 15.4 C 92 % 14.11 C
24 13-09-2019 01:55:00 15.4 C 92 % 14.11 C
25 13-09-2019 02:00:00 15.3 C 92 % 14.01 C
Sensor: Nr:Datum:Temp:Feuchte:Taupunkt:
Aussen-T/F 26 13-09-2019 02:05:00 15.2 C 92 % 13.91 C
27 13-09-2019 02:10:00 15.3 C 93 % 14.18 C
28 13-09-2019 02:15:00 15.4 C 93 % 14.27 C
29 13-09-2019 02:20:00 15.4 C 93 % 14.27 C
30 13-09-2019 02:25:00 15.3 C 92 % 14.01 C
31 13-09-2019 02:30:00 15.3 C 92 % 14.01 C
32 13-09-2019 02:35:00 15.2 C 92 % 13.91 C
33 13-09-2019 02:40:00 15.2 C 93 % 14.08 C
34 13-09-2019 02:45:00 15.2 C 93 % 14.08 C
35 13-09-2019 02:50:00 15.1 C 93 % 13.98 C
36 13-09-2019 02:55:00 15.1 C 93 % 13.98 C
37 13-09-2019 03:00:00 15.1 C 93 % 13.98 C
38 13-09-2019 03:05:00 15 C 93 % 13.88 C
39 13-09-2019 03:10:00 15 C 93 % 13.88 C
40 13-09-2019 03:15:00 14.9 C 93 % 13.78 C
41 13-09-2019 03:20:00 14.9 C 93 % 13.78 C
42 13-09-2019 03:25:00 15 C 94 % 14.04 C
43 13-09-2019 03:30:00 15.1 C 94 % 14.14 C
44 13-09-2019 03:35:00 15.1 C 94 % 14.14 C
45 13-09-2019 03:40:00 15.2 C 94 % 14.24 C
46 13-09-2019 03:45:00 15.3 C 94 % 14.34 C
47 13-09-2019 03:50:00 15.3 C 94 % 14.34 C
48 13-09-2019 03:55:00 15.3 C 94 % 14.34 C
49 13-09-2019 04:00:00 15.4 C 94 % 14.44 C
50 13-09-2019 04:05:00 15.4 C 94 % 14.44 C
Sensor: Nr:Datum:Temp:Feuchte:Taupunkt:
Aussen-T/F 51 13-09-2019 04:10:00 15.4 C 94 % 14.44 C
52 13-09-2019 04:15:00 15.5 C 94 % 14.54 C
53 13-09-2019 04:20:00 15.5 C 94 % 14.54 C
54 13-09-2019 04:25:00 15.6 C 93 % 14.47 C
55 13-09-2019 04:30:00 15.6 C 93 % 14.47 C
56 13-09-2019 04:35:00 15.6 C 93 % 14.47 C
57 13-09-2019 04:40:00 15.7 C 93 % 14.57 C
58 13-09-2019 04:45:00 15.7 C 93 % 14.57 C
59 13-09-2019 04:50:00 15.7 C 93 % 14.57 C
60 13-09-2019 04:55:00 15.8 C 93 % 14.67 C
61 13-09-2019 05:00:00 15.8 C 93 % 14.67 C
62 13-09-2019 05:05:00 15.9 C 92 % 14.6 C
63 13-09-2019 05:10:00 16.1 C 92 % 14.8 C
64 13-09-2019 05:15:00 16.2 C 92 % 14.9 C
65 13-09-2019 05:20:00 16.3 C 91 % 14.83 C
66 13-09-2019 05:25:00 16.3 C 91 % 14.83 C
67 13-09-2019 05:30:00 16.4 C 91 % 14.93 C
68 13-09-2019 05:35:00 16.3 C 90 % 14.66 C
69 13-09-2019 05:40:00 16.3 C 90 % 14.66 C
70 13-09-2019 05:45:00 16.3 C 90 % 14.66 C
71 13-09-2019 05:50:00 16.2 C 90 % 14.56 C
72 13-09-2019 05:55:00 16.2 C 91 % 14.73 C
73 13-09-2019 06:00:00 16.2 C 91 % 14.73 C
74 13-09-2019 06:05:00 16.2 C 91 % 14.73 C
75 13-09-2019 06:10:00 16.2 C 91 % 14.73 C
Sensor: Nr:Datum:Temp:Feuchte:Taupunkt:
Aussen-T/F 76 13-09-2019 06:15:00 16.2 C 91 % 14.73 C
77 13-09-2019 06:20:00 16.2 C 91 % 14.73 C
78 13-09-2019 06:25:00 16.2 C 91 % 14.73 C
79 13-09-2019 06:30:00 16.2 C 91 % 14.73 C
80 13-09-2019 06:35:00 16.2 C 91 % 14.73 C
81 13-09-2019 06:40:00 16.2 C 91 % 14.73 C
82 13-09-2019 06:45:00 16.3 C 91 % 14.83 C
83 13-09-2019 06:50:00 16.4 C 91 % 14.93 C
84 13-09-2019 06:55:00 16.6 C 90 % 14.95 C
85 13-09-2019 07:00:00 16.6 C 90 % 14.95 C
86 13-09-2019 07:05:00 16.6 C 90 % 14.95 C
87 13-09-2019 07:10:00 16.6 C 90 % 14.95 C
88 13-09-2019 07:15:00 16.6 C 90 % 14.95 C
89 13-09-2019 07:20:00 16.6 C 90 % 14.95 C
90 13-09-2019 07:25:00 16.6 C 90 % 14.95 C
91 13-09-2019 07:30:00 16.6 C 90 % 14.95 C
92 13-09-2019 07:35:00 16.7 C 90 % 15.05 C
93 13-09-2019 07:40:00 16.7 C 90 % 15.05 C
94 13-09-2019 07:45:00 16.7 C 90 % 15.05 C
95 13-09-2019 07:50:00 16.7 C 90 % 15.05 C
96 13-09-2019 07:55:00 16.7 C 90 % 15.05 C
97 13-09-2019 08:00:00 16.7 C 90 % 15.05 C
98 13-09-2019 08:05:00 16.7 C 90 % 15.05 C
99 13-09-2019 08:10:00 16.8 C 91 % 15.32 C
100 13-09-2019 08:15:00 16.8 C 91 % 15.32 C
Sensor: Nr:Datum:Temp:Feuchte:Taupunkt:
Aussen-T/F 101 13-09-2019 08:20:00 16.8 C 91 % 15.32 C
102 13-09-2019 08:25:00 16.9 C 91 % 15.42 C
103 13-09-2019 08:30:00 16.9 C 90 % 15.25 C
104 13-09-2019 08:35:00 16.9 C 90 % 15.25 C
105 13-09-2019 08:40:00 16.9 C 91 % 15.42 C
106 13-09-2019 08:45:00 16.9 C 91 % 15.42 C
107 13-09-2019 08:50:00 17 C 91 % 15.52 C
108 13-09-2019 08:55:00 17 C 91 % 15.52 C
109 13-09-2019 09:00:00 17.1 C 91 % 15.62 C
110 13-09-2019 09:05:00 17.1 C 91 % 15.62 C
111 13-09-2019 09:10:00 17.2 C 91 % 15.72 C
112 13-09-2019 09:15:00 17.2 C 90 % 15.55 C
113 13-09-2019 09:20:00 17.3 C 90 % 15.64 C
114 13-09-2019 09:25:00 17.4 C 89 % 15.57 C
115 13-09-2019 09:30:00 17.6 C 89 % 15.77 C
116 13-09-2019 09:35:00 17.7 C 89 % 15.86 C
117 13-09-2019 09:40:00 17.8 C 88 % 15.79 C
118 13-09-2019 09:45:00 17.8 C 88 % 15.79 C
119 13-09-2019 09:50:00 17.8 C 88 % 15.79 C
120 13-09-2019 09:55:00 17.9 C 88 % 15.88 C
121 13-09-2019 10:00:00 18 C 87 % 15.8 C
122 13-09-2019 10:05:00 18.1 C 87 % 15.9 C
123 13-09-2019 10:10:00 18.2 C 87 % 16 C
124 13-09-2019 10:15:00 18.2 C 87 % 16 C
125 13-09-2019 10:20:00 18.4 C 87 % 16.2 C
Sensor: Nr:Datum:Temp:Feuchte:Taupunkt:
Aussen-T/F 126 13-09-2019 10:25:00 18.5 C 86 % 16.11 C
127 13-09-2019 10:30:00 18.6 C 86 % 16.21 C
128 13-09-2019 10:35:00 18.7 C 86 % 16.31 C
129 13-09-2019 10:40:00 18.7 C 86 % 16.31 C
130 13-09-2019 10:45:00 18.8 C 85 % 16.23 C
131 13-09-2019 10:50:00 18.9 C 85 % 16.32 C
132 13-09-2019 10:55:00 19.1 C 84 % 16.33 C
133 13-09-2019 11:00:00 19.2 C 84 % 16.43 C
134 13-09-2019 11:05:00 19.3 C 84 % 16.53 C
135 13-09-2019 11:10:00 19.4 C 83 % 16.44 C
136 13-09-2019 11:15:00 19.6 C 82 % 16.44 C
137 13-09-2019 11:20:00 19.7 C 82 % 16.54 C
138 13-09-2019 11:25:00 19.8 C 82 % 16.64 C
139 13-09-2019 11:30:00 19.7 C 82 % 16.54 C
140 13-09-2019 11:35:00 19.7 C 83 % 16.73 C
141 13-09-2019 11:40:00 19.7 C 82 % 16.54 C
142 13-09-2019 11:45:00 19.7 C 82 % 16.54 C
143 13-09-2019 11:50:00 19.7 C 81 % 16.35 C
144 13-09-2019 11:55:00 19.7 C 82 % 16.54 C
145 13-09-2019 12:00:00 19.8 C 82 % 16.64 C
146 13-09-2019 12:05:00 19.9 C 81 % 16.54 C
147 13-09-2019 12:10:00 20.1 C 81 % 16.74 C
148 13-09-2019 12:15:00 20.2 C 80 % 16.64 C
149 13-09-2019 12:20:00 20.3 C 79 % 16.54 C
150 13-09-2019 12:25:00 20.3 C 80 % 16.74 C
Sensor: Nr:Datum:Temp:Feuchte:Taupunkt:
Aussen-T/F 151 13-09-2019 12:30:00 20.4 C 79 % 16.64 C
152 13-09-2019 12:35:00 20.5 C 79 % 16.73 C
153 13-09-2019 12:40:00 20.6 C 79 % 16.83 C
154 13-09-2019 12:45:00 20.7 C 79 % 16.93 C
155 13-09-2019 12:50:00 20.7 C 78 % 16.73 C
156 13-09-2019 12:55:00 20.7 C 77 % 16.52 C
157 13-09-2019 13:00:00 20.6 C 77 % 16.43 C
158 13-09-2019 13:05:00 20.5 C 78 % 16.53 C
159 13-09-2019 13:10:00 20.6 C 78 % 16.63 C
160 13-09-2019 13:15:00 20.6 C 77 % 16.43 C
161 13-09-2019 13:20:00 20.6 C 77 % 16.43 C
162 13-09-2019 13:25:00 20.6 C 77 % 16.43 C
163 13-09-2019 13:30:00 20.6 C 77 % 16.43 C
164 13-09-2019 13:35:00 20.6 C 77 % 16.43 C
165 13-09-2019 13:40:00 20.7 C 77 % 16.52 C
166 13-09-2019 13:45:00 20.6 C 77 % 16.43 C
167 13-09-2019 13:50:00 20.6 C 77 % 16.43 C
168 13-09-2019 13:55:00 20.7 C 77 % 16.52 C
169 13-09-2019 14:00:00 21 C 78 % 17.02 C
170 13-09-2019 14:05:00 21.3 C 76 % 16.9 C
171 13-09-2019 14:10:00 21.3 C 75 % 16.69 C
172 13-09-2019 14:15:00 21.3 C 75 % 16.69 C
173 13-09-2019 14:20:00 21.2 C 75 % 16.59 C
174 13-09-2019 14:25:00 21.1 C 76 % 16.7 C
175 13-09-2019 14:30:00 21.1 C 76 % 16.7 C
Sensor: Nr:Datum:Temp:Feuchte:Taupunkt:
Aussen-T/F 176 13-09-2019 14:35:00 21.1 C 76 % 16.7 C
177 13-09-2019 14:40:00 21.1 C 76 % 16.7 C
178 13-09-2019 14:45:00 21.2 C 76 % 16.8 C
179 13-09-2019 14:50:00 21.2 C 75 % 16.59 C
180 13-09-2019 14:55:00 21.1 C 76 % 16.7 C
181 13-09-2019 15:00:00 21.1 C 76 % 16.7 C
182 13-09-2019 15:05:00 20.9 C 76 % 16.51 C
183 13-09-2019 15:10:00 21 C 77 % 16.81 C
184 13-09-2019 15:15:00 21.1 C 77 % 16.91 C
185 13-09-2019 15:20:00 21.1 C 78 % 17.11 C
186 13-09-2019 15:25:00 21.1 C 77 % 16.91 C
187 13-09-2019 15:30:00 20.9 C 78 % 16.92 C
188 13-09-2019 15:35:00 20.8 C 78 % 16.82 C
189 13-09-2019 15:40:00 20.8 C 79 % 17.02 C
190 13-09-2019 15:45:00 20.7 C 78 % 16.73 C
191 13-09-2019 15:50:00 20.5 C 79 % 16.73 C
192 13-09-2019 15:55:00 20.3 C 80 % 16.74 C
193 13-09-2019 16:00:00 20.2 C 82 % 17.03 C
194 13-09-2019 16:05:00 20.1 C 82 % 16.93 C
195 13-09-2019 16:10:00 19.8 C 84 % 17.02 C
196 13-09-2019 16:15:00 19.4 C 86 % 17 C
197 13-09-2019 16:20:00 19.2 C 88 % 17.16 C
198 13-09-2019 16:25:00 19.1 C 89 % 17.24 C
199 13-09-2019 16:30:00 19 C 89 % 17.15 C
200 13-09-2019 16:35:00 19.1 C 90 % 17.42 C
Sensor: Nr:Datum:Temp:Feuchte:Taupunkt:
Aussen-T/F 201 13-09-2019 16:40:00 18.9 C 89 % 17.05 C
202 13-09-2019 16:45:00 19.1 C 90 % 17.42 C
203 13-09-2019 16:50:00 19 C 89 % 17.15 C
204 13-09-2019 16:55:00 19 C 89 % 17.15 C
205 13-09-2019 17:00:00 19 C 89 % 17.15 C
206 13-09-2019 17:05:00 19.1 C 90 % 17.42 C
207 13-09-2019 17:10:00 19.2 C 90 % 17.52 C
208 13-09-2019 17:15:00 19.2 C 89 % 17.34 C
209 13-09-2019 17:20:00 19.1 C 89 % 17.24 C
210 13-09-2019 17:25:00 19.1 C 89 % 17.24 C
211 13-09-2019 17:30:00 19.1 C 88 % 17.07 C
212 13-09-2019 17:35:00 19.2 C 89 % 17.34 C
213 13-09-2019 17:40:00 19.3 C 90 % 17.62 C
214 13-09-2019 17:45:00 19.3 C 89 % 17.44 C
215 13-09-2019 17:50:00 19.4 C 90 % 17.72 C
216 13-09-2019 17:55:00 19.5 C 90 % 17.82 C
217 13-09-2019 18:00:00 19.6 C 90 % 17.91 C
218 13-09-2019 18:05:00 19.7 C 90 % 18.01 C
219 13-09-2019 18:10:00 19.7 C 90 % 18.01 C
220 13-09-2019 18:15:00 19.7 C 90 % 18.01 C
221 13-09-2019 18:20:00 19.8 C 90 % 18.11 C
222 13-09-2019 18:25:00 19.9 C 90 % 18.21 C
223 13-09-2019 18:30:00 20.1 C 90 % 18.41 C
224 13-09-2019 18:35:00 20.1 C 90 % 18.41 C
225 13-09-2019 18:40:00 20.3 C 90 % 18.61 C
Sensor: Nr:Datum:Temp:Feuchte:Taupunkt:
Aussen-T/F 226 13-09-2019 18:45:00 20.3 C 88 % 18.25 C
227 13-09-2019 18:50:00 20.3 C 86 % 17.88 C
228 13-09-2019 18:55:00 20.5 C 87 % 18.26 C
229 13-09-2019 19:00:00 20.7 C 86 % 18.27 C
230 13-09-2019 19:05:00 20.7 C 85 % 18.09 C
231 13-09-2019 19:10:00 20.6 C 84 % 17.8 C
232 13-09-2019 19:15:00 20.4 C 84 % 17.61 C
233 13-09-2019 19:20:00 20.1 C 84 % 17.31 C
234 13-09-2019 19:25:00 19.7 C 85 % 17.11 C
235 13-09-2019 19:30:00 19.3 C 86 % 16.9 C
236 13-09-2019 19:35:00 18.9 C 87 % 16.69 C
237 13-09-2019 19:40:00 18.7 C 88 % 16.67 C
238 13-09-2019 19:45:00 18.4 C 88 % 16.38 C
239 13-09-2019 19:50:00 18.2 C 89 % 16.36 C
240 13-09-2019 19:55:00 18.1 C 89 % 16.26 C
241 13-09-2019 20:00:00 17.8 C 90 % 16.14 C
242 13-09-2019 20:05:00 17.8 C 90 % 16.14 C
243 13-09-2019 20:10:00 17.7 C 91 % 16.21 C
244 13-09-2019 20:15:00 17.7 C 91 % 16.21 C
245 13-09-2019 20:20:00 17.7 C 92 % 16.38 C
246 13-09-2019 20:25:00 17.7 C 92 % 16.38 C
247 13-09-2019 20:30:00 17.7 C 92 % 16.38 C
248 13-09-2019 20:35:00 17.6 C 92 % 16.28 C
249 13-09-2019 20:40:00 17.6 C 92 % 16.28 C
250 13-09-2019 20:45:00 17.4 C 92 % 16.09 C
Sensor: Nr:Datum:Temp:Feuchte:Taupunkt:
Aussen-T/F 251 13-09-2019 20:50:00 17.3 C 92 % 15.99 C
252 13-09-2019 20:55:00 17.3 C 92 % 15.99 C
253 13-09-2019 21:00:00 17.2 C 92 % 15.89 C
254 13-09-2019 21:05:00 17.1 C 92 % 15.79 C
255 13-09-2019 21:10:00 17.1 C 93 % 15.96 C
256 13-09-2019 21:15:00 17.1 C 93 % 15.96 C
257 13-09-2019 21:20:00 17.1 C 93 % 15.96 C
258 13-09-2019 21:25:00 17 C 93 % 15.86 C
259 13-09-2019 21:30:00 16.9 C 93 % 15.76 C
260 13-09-2019 21:35:00 16.9 C 93 % 15.76 C
261 13-09-2019 21:40:00 16.8 C 93 % 15.66 C
262 13-09-2019 21:45:00 16.8 C 93 % 15.66 C
263 13-09-2019 21:50:00 16.7 C 93 % 15.56 C
264 13-09-2019 21:55:00 16.7 C 93 % 15.56 C
265 13-09-2019 22:00:00 16.7 C 93 % 15.56 C
266 13-09-2019 22:05:00 16.6 C 93 % 15.46 C
267 13-09-2019 22:10:00 16.5 C 93 % 15.36 C
268 13-09-2019 22:15:00 16.4 C 93 % 15.27 C
269 13-09-2019 22:20:00 16.4 C 93 % 15.27 C
270 13-09-2019 22:25:00 16.3 C 93 % 15.17 C
271 13-09-2019 22:30:00 16.2 C 93 % 15.07 C
272 13-09-2019 22:35:00 16.2 C 93 % 15.07 C
273 13-09-2019 22:40:00 16.1 C 93 % 14.97 C
274 13-09-2019 22:45:00 16 C 93 % 14.87 C
275 13-09-2019 22:50:00 15.9 C 93 % 14.77 C
Sensor: Nr:Datum:Temp:Feuchte:Taupunkt:
Aussen-T/F 276 13-09-2019 22:55:00 15.8 C 93 % 14.67 C
277 13-09-2019 23:00:00 15.8 C 93 % 14.67 C
278 13-09-2019 23:05:00 15.7 C 93 % 14.57 C
279 13-09-2019 23:10:00 15.6 C 93 % 14.47 C
280 13-09-2019 23:15:00 15.5 C 94 % 14.54 C
281 13-09-2019 23:20:00 15.4 C 93 % 14.27 C
282 13-09-2019 23:25:00 15.4 C 93 % 14.27 C
283 13-09-2019 23:30:00 15.3 C 94 % 14.34 C
284 13-09-2019 23:35:00 15.3 C 94 % 14.34 C
285 13-09-2019 23:40:00 15.3 C 94 % 14.34 C
286 13-09-2019 23:45:00 15.4 C 94 % 14.44 C
287 13-09-2019 23:50:00 15.5 C 95 % 14.7 C
288 13-09-2019 23:55:00 15.6 C 95 % 14.8 C
289 14-09-2019 00:00:00 15.6 C 95 % 14.8 C
290 14-09-2019 00:05:00 15.6 C 94 % 14.64 C
291 14-09-2019 00:10:00 15.5 C 94 % 14.54 C
292 14-09-2019 00:15:00 15.5 C 95 % 14.7 C
293 14-09-2019 00:20:00 15.5 C 95 % 14.7 C
294 14-09-2019 00:25:00 15.5 C 95 % 14.7 C
295 14-09-2019 00:30:00 15.4 C 94 % 14.44 C
296 14-09-2019 00:35:00 15.3 C 94 % 14.34 C
297 14-09-2019 00:40:00 15.2 C 94 % 14.24 C
298 14-09-2019 00:45:00 15.2 C 94 % 14.24 C
299 14-09-2019 00:50:00 15.2 C 95 % 14.4 C
300 14-09-2019 00:55:00 15.2 C 95 % 14.4 C
Sensor: Nr:Datum:Temp:Feuchte:Taupunkt:
Aussen-T/F 301 14-09-2019 01:00:00 15.1 C 95 % 14.31 C
302 14-09-2019 01:05:00 15 C 95 % 14.21 C
303 14-09-2019 01:10:00 14.9 C 95 % 14.11 C
304 14-09-2019 01:15:00 14.9 C 95 % 14.11 C
305 14-09-2019 01:20:00 14.8 C 95 % 14.01 C
306 14-09-2019 01:25:00 14.8 C 94 % 13.84 C
307 14-09-2019 01:30:00 14.7 C 94 % 13.74 C
308 14-09-2019 01:35:00 14.5 C 94 % 13.55 C
309 14-09-2019 01:40:00 14.3 C 94 % 13.35 C
310 14-09-2019 01:45:00 14.2 C 94 % 13.25 C
311 14-09-2019 01:50:00 14.2 C 95 % 13.41 C
312 14-09-2019 01:55:00 14.2 C 95 % 13.41 C
313 14-09-2019 02:00:00 14.1 C 94 % 13.15 C
314 14-09-2019 02:05:00 13.9 C 94 % 12.95 C
315 14-09-2019 02:10:00 13.8 C 94 % 12.85 C
316 14-09-2019 02:15:00 13.7 C 94 % 12.75 C
317 14-09-2019 02:20:00 13.7 C 95 % 12.91 C
318 14-09-2019 02:25:00 13.6 C 95 % 12.81 C
319 14-09-2019 02:30:00 13.5 C 95 % 12.72 C
320 14-09-2019 02:35:00 13.4 C 94 % 12.45 C
321 14-09-2019 02:40:00 13.3 C 94 % 12.36 C
322 14-09-2019 02:45:00 13.1 C 95 % 12.32 C
323 14-09-2019 02:50:00 13.1 C 95 % 12.32 C
324 14-09-2019 02:55:00 13.1 C 95 % 12.32 C
325 14-09-2019 03:00:00 13 C 95 % 12.22 C
Sensor: Nr:Datum:Temp:Feuchte:Taupunkt:
Aussen-T/F 326 14-09-2019 03:05:00 12.9 C 95 % 12.12 C
327 14-09-2019 03:10:00 13 C 95 % 12.22 C
328 14-09-2019 03:15:00 12.9 C 95 % 12.12 C
329 14-09-2019 03:20:00 12.9 C 95 % 12.12 C
330 14-09-2019 03:25:00 12.8 C 95 % 12.02 C
331 14-09-2019 03:30:00 12.7 C 95 % 11.92 C
332 14-09-2019 03:35:00 12.6 C 95 % 11.82 C
333 14-09-2019 03:40:00 12.5 C 95 % 11.72 C
334 14-09-2019 03:45:00 12.5 C 95 % 11.72 C
335 14-09-2019 03:50:00 12.4 C 95 % 11.62 C
336 14-09-2019 03:55:00 12.3 C 95 % 11.52 C
337 14-09-2019 04:00:00 12.2 C 95 % 11.42 C
338 14-09-2019 04:05:00 12.2 C 96 % 11.58 C
339 14-09-2019 04:10:00 12.2 C 95 % 11.42 C
340 14-09-2019 04:15:00 12.1 C 95 % 11.32 C
341 14-09-2019 04:20:00 12.1 C 95 % 11.32 C
342 14-09-2019 04:25:00 12 C 95 % 11.22 C
343 14-09-2019 04:30:00 11.9 C 96 % 11.28 C
344 14-09-2019 04:35:00 12 C 96 % 11.38 C
345 14-09-2019 04:40:00 11.9 C 96 % 11.28 C
346 14-09-2019 04:45:00 11.9 C 96 % 11.28 C
347 14-09-2019 04:50:00 11.8 C 96 % 11.18 C
348 14-09-2019 04:55:00 11.8 C 95 % 11.03 C
349 14-09-2019 05:00:00 11.7 C 95 % 10.93 C
350 14-09-2019 05:05:00 11.6 C 96 % 10.98 C
Sensor: Nr:Datum:Temp:Feuchte:Taupunkt:
Aussen-T/F 351 14-09-2019 05:10:00 11.5 C 96 % 10.88 C
352 14-09-2019 05:15:00 11.4 C 95 % 10.63 C
353 14-09-2019 05:20:00 11.4 C 96 % 10.79 C
354 14-09-2019 05:25:00 11.3 C 96 % 10.69 C
355 14-09-2019 05:30:00 11.3 C 96 % 10.69 C
356 14-09-2019 05:35:00 11.2 C 96 % 10.59 C
357 14-09-2019 05:40:00 11.1 C 96 % 10.49 C
358 14-09-2019 05:45:00 11.1 C 96 % 10.49 C
359 14-09-2019 05:50:00 11.1 C 96 % 10.49 C
360 14-09-2019 05:55:00 11.1 C 96 % 10.49 C
361 14-09-2019 06:00:00 11 C 96 % 10.39 C
362 14-09-2019 06:05:00 11 C 96 % 10.39 C
363 14-09-2019 06:10:00 10.9 C 96 % 10.29 C
364 14-09-2019 06:15:00 10.9 C 96 % 10.29 C
365 14-09-2019 06:20:00 10.9 C 96 % 10.29 C
366 14-09-2019 06:25:00 10.9 C 96 % 10.29 C
367 14-09-2019 06:30:00 10.9 C 96 % 10.29 C
368 14-09-2019 06:35:00 10.8 C 96 % 10.19 C
369 14-09-2019 06:40:00 10.7 C 96 % 10.09 C
370 14-09-2019 06:45:00 10.6 C 96 % 9.99 C
371 14-09-2019 06:50:00 10.4 C 96 % 9.79 C
372 14-09-2019 06:55:00 10.4 C 96 % 9.79 C
373 14-09-2019 07:00:00 10.4 C 96 % 9.79 C
374 14-09-2019 07:05:00 10.4 C 96 % 9.79 C
375 14-09-2019 07:10:00 10.4 C 96 % 9.79 C
Sensor: Nr:Datum:Temp:Feuchte:Taupunkt:
Aussen-T/F 376 14-09-2019 07:15:00 10.4 C 96 % 9.79 C
377 14-09-2019 07:20:00 10.4 C 96 % 9.79 C
378 14-09-2019 07:25:00 10.4 C 96 % 9.79 C
379 14-09-2019 07:30:00 10.4 C 96 % 9.79 C
380 14-09-2019 07:35:00 10.4 C 96 % 9.79 C
381 14-09-2019 07:40:00 10.4 C 96 % 9.79 C
382 14-09-2019 07:45:00 10.4 C 96 % 9.79 C
383 14-09-2019 07:50:00 10.4 C 96 % 9.79 C
384 14-09-2019 07:55:00 10.4 C 96 % 9.79 C
385 14-09-2019 08:00:00 10.4 C 96 % 9.79 C
386 14-09-2019 08:05:00 10.4 C 96 % 9.79 C
387 14-09-2019 08:10:00 10.4 C 96 % 9.79 C
388 14-09-2019 08:15:00 10.3 C 96 % 9.69 C
389 14-09-2019 08:20:00 10.4 C 96 % 9.79 C
390 14-09-2019 08:25:00 10.3 C 96 % 9.69 C
391 14-09-2019 08:30:00 10.4 C 96 % 9.79 C
392 14-09-2019 08:35:00 10.4 C 96 % 9.79 C
393 14-09-2019 08:40:00 10.4 C 96 % 9.79 C
394 14-09-2019 08:45:00 10.4 C 96 % 9.79 C
395 14-09-2019 08:50:00 10.5 C 96 % 9.89 C
396 14-09-2019 08:55:00 10.6 C 96 % 9.99 C
397 14-09-2019 09:00:00 10.6 C 97 % 10.14 C
398 14-09-2019 09:05:00 10.7 C 97 % 10.24 C
399 14-09-2019 09:10:00 10.7 C 97 % 10.24 C
400 14-09-2019 09:15:00 10.8 C 97 % 10.34 C
Sensor: Nr:Datum:Temp:Feuchte:Taupunkt:
Aussen-T/F 401 14-09-2019 09:20:00 10.9 C 97 % 10.44 C
402 14-09-2019 09:25:00 10.9 C 97 % 10.44 C
403 14-09-2019 09:30:00 11 C 97 % 10.54 C
404 14-09-2019 09:35:00 11.1 C 97 % 10.64 C
405 14-09-2019 09:40:00 11.2 C 97 % 10.74 C
406 14-09-2019 09:45:00 11.3 C 97 % 10.84 C
407 14-09-2019 09:50:00 11.4 C 97 % 10.94 C
408 14-09-2019 09:55:00 11.5 C 97 % 11.04 C
409 14-09-2019 10:00:00 11.7 C 97 % 11.24 C
410 14-09-2019 10:05:00 11.8 C 97 % 11.34 C
411 14-09-2019 10:10:00 11.9 C 97 % 11.44 C
412 14-09-2019 10:15:00 12 C 97 % 11.54 C
413 14-09-2019 10:20:00 12.1 C 97 % 11.64 C
414 14-09-2019 10:25:00 12.2 C 97 % 11.74 C
415 14-09-2019 10:30:00 12.3 C 97 % 11.84 C
416 14-09-2019 10:35:00 12.4 C 97 % 11.94 C
417 14-09-2019 10:40:00 12.5 C 97 % 12.04 C
418 14-09-2019 10:45:00 12.6 C 97 % 12.14 C
419 14-09-2019 10:50:00 12.7 C 97 % 12.24 C
420 14-09-2019 10:55:00 12.9 C 97 % 12.44 C
421 14-09-2019 11:00:00 13 C 97 % 12.54 C
422 14-09-2019 11:05:00 13.1 C 97 % 12.63 C
423 14-09-2019 11:10:00 13.3 C 96 % 12.68 C
424 14-09-2019 11:15:00 13.4 C 96 % 12.78 C
425 14-09-2019 11:20:00 13.5 C 96 % 12.87 C
Sensor: Nr:Datum:Temp:Feuchte:Taupunkt:
Aussen-T/F 426 14-09-2019 11:25:00 13.6 C 95 % 12.81 C
427 14-09-2019 11:30:00 13.8 C 96 % 13.17 C
428 14-09-2019 11:35:00 13.9 C 95 % 13.11 C
429 14-09-2019 11:40:00 14 C 95 % 13.21 C
430 14-09-2019 11:45:00 14.1 C 94 % 13.15 C
431 14-09-2019 11:50:00 14.2 C 93 % 13.08 C
432 14-09-2019 11:55:00 14.4 C 92 % 13.12 C
433 14-09-2019 12:00:00 14.7 C 92 % 13.41 C
434 14-09-2019 12:05:00 14.9 C 91 % 13.44 C
435 14-09-2019 12:10:00 15.2 C 89 % 13.4 C
436 14-09-2019 12:15:00 15.4 C 88 % 13.42 C
437 14-09-2019 12:20:00 15.7 C 85 % 13.19 C
438 14-09-2019 12:25:00 16 C 83 % 13.12 C
439 14-09-2019 12:30:00 16.3 C 82 % 13.22 C
440 14-09-2019 12:35:00 16.7 C 81 % 13.43 C
441 14-09-2019 12:40:00 16.8 C 81 % 13.52 C
442 14-09-2019 12:45:00 17.1 C 82 % 14 C
443 14-09-2019 12:50:00 17.3 C 78 % 13.43 C
444 14-09-2019 12:55:00 17.6 C 76 % 13.32 C
445 14-09-2019 13:00:00 17.8 C 75 % 13.31 C
446 14-09-2019 13:05:00 18 C 73 % 13.09 C
447 14-09-2019 13:10:00 18.2 C 76 % 13.9 C
448 14-09-2019 13:15:00 18.3 C 72 % 13.17 C
449 14-09-2019 13:20:00 18.4 C 70 % 12.83 C
450 14-09-2019 13:25:00 18.6 C 72 % 13.46 C
Sensor: Nr:Datum:Temp:Feuchte:Taupunkt:
Aussen-T/F 451 14-09-2019 13:30:00 18.7 C 73 % 13.76 C
452 14-09-2019 13:35:00 18.8 C 67 % 12.55 C
453 14-09-2019 13:40:00 19.1 C 68 % 13.06 C
454 14-09-2019 13:45:00 19.2 C 66 % 12.7 C
455 14-09-2019 13:50:00 19.4 C 65 % 12.66 C
456 14-09-2019 13:55:00 19.6 C 64 % 12.61 C
457 14-09-2019 14:00:00 19.7 C 64 % 12.7 C
458 14-09-2019 14:05:00 19.7 C 65 % 12.94 C
459 14-09-2019 14:10:00 19.8 C 65 % 13.03 C
460 14-09-2019 14:15:00 19.9 C 65 % 13.13 C
461 14-09-2019 14:20:00 20.1 C 63 % 12.84 C
462 14-09-2019 14:25:00 20.3 C 64 % 13.27 C
463 14-09-2019 14:30:00 20.6 C 62 % 13.07 C
464 14-09-2019 14:35:00 20.8 C 61 % 13.01 C
465 14-09-2019 14:40:00 20.8 C 59 % 12.5 C
466 14-09-2019 14:45:00 20.9 C 60 % 12.85 C
467 14-09-2019 14:50:00 21.2 C 60 % 13.13 C
468 14-09-2019 14:55:00 21.4 C 58 % 12.8 C
469 14-09-2019 15:00:00 21.6 C 59 % 13.25 C
470 14-09-2019 15:05:00 21.7 C 57 % 12.81 C
471 14-09-2019 15:10:00 21.7 C 58 % 13.08 C
472 14-09-2019 15:15:00 21.8 C 56 % 12.64 C
473 14-09-2019 15:20:00 21.8 C 56 % 12.64 C
474 14-09-2019 15:25:00 21.8 C 56 % 12.64 C
475 14-09-2019 15:30:00 21.8 C 55 % 12.36 C
Sensor: Nr:Datum:Temp:Feuchte:Taupunkt:
Aussen-T/F 476 14-09-2019 15:35:00 21.8 C 55 % 12.36 C
477 14-09-2019 15:40:00 21.7 C 55 % 12.27 C
478 14-09-2019 15:45:00 21.7 C 54 % 11.99 C
479 14-09-2019 15:50:00 21.7 C 54 % 11.99 C
480 14-09-2019 15:55:00 21.8 C 54 % 12.08 C
481 14-09-2019 16:00:00 22 C 52 % 11.7 C
482 14-09-2019 16:05:00 22.1 C 51 % 11.5 C
483 14-09-2019 16:10:00 22.1 C 52 % 11.79 C
484 14-09-2019 16:15:00 22.1 C 51 % 11.5 C
485 14-09-2019 16:20:00 22.1 C 51 % 11.5 C
486 14-09-2019 16:25:00 22.2 C 51 % 11.59 C
487 14-09-2019 16:30:00 22.4 C 51 % 11.77 C
488 14-09-2019 16:35:00 22.6 C 51 % 11.96 C
489 14-09-2019 16:40:00 22.7 C 52 % 12.34 C
490 14-09-2019 16:45:00 22.8 C 54 % 13.01 C
491 14-09-2019 16:50:00 23 C 56 % 13.75 C
492 14-09-2019 16:55:00 23.2 C 57 % 14.21 C
493 14-09-2019 17:00:00 23.3 C 55 % 13.76 C
494 14-09-2019 17:05:00 23.4 C 53 % 13.28 C
495 14-09-2019 17:10:00 23.8 C 50 % 12.76 C
496 14-09-2019 17:15:00 24.1 C 46 % 11.76 C
497 14-09-2019 17:20:00 24.3 C 49 % 12.91 C
498 14-09-2019 17:25:00 24.4 C 45 % 11.7 C
499 14-09-2019 17:30:00 24.4 C 45 % 11.7 C
500 14-09-2019 17:35:00 24.3 C 44 % 11.27 C
Sensor: Nr:Datum:Temp:Feuchte:Taupunkt:
Aussen-T/F 501 14-09-2019 17:40:00 24.3 C 44 % 11.27 C
502 14-09-2019 17:45:00 24.3 C 44 % 11.27 C
503 14-09-2019 17:50:00 24.5 C 44 % 11.45 C
504 14-09-2019 17:55:00 24.6 C 44 % 11.54 C
505 14-09-2019 18:00:00 24.6 C 45 % 11.88 C
506 14-09-2019 18:05:00 24.7 C 53 % 14.48 C
507 14-09-2019 18:10:00 24.8 C 52 % 14.28 C
508 14-09-2019 18:15:00 24.7 C 54 % 14.77 C
509 14-09-2019 18:20:00 24.4 C 54 % 14.49 C
510 14-09-2019 18:25:00 24.1 C 55 % 14.5 C
511 14-09-2019 18:30:00 23.7 C 54 % 13.84 C
512 14-09-2019 18:35:00 23.3 C 52 % 12.9 C
513 14-09-2019 18:40:00 22.9 C 58 % 14.2 C
514 14-09-2019 18:45:00 22.4 C 58 % 13.73 C
515 14-09-2019 18:50:00 22 C 60 % 13.88 C
516 14-09-2019 18:55:00 21.6 C 61 % 13.76 C
517 14-09-2019 19:00:00 21.2 C 63 % 13.88 C
518 14-09-2019 19:05:00 20.8 C 63 % 13.5 C
519 14-09-2019 19:10:00 20.6 C 64 % 13.55 C
520 14-09-2019 19:15:00 20.3 C 65 % 13.51 C
521 14-09-2019 19:20:00 20 C 64 % 12.99 C
522 14-09-2019 19:25:00 19.6 C 64 % 12.61 C
523 14-09-2019 19:30:00 19.2 C 65 % 12.47 C
524 14-09-2019 19:35:00 18.9 C 65 % 12.18 C
525 14-09-2019 19:40:00 18.6 C 66 % 12.13 C
Sensor: Nr:Datum:Temp:Feuchte:Taupunkt:
Aussen-T/F 526 14-09-2019 19:45:00 18.3 C 66 % 11.84 C
527 14-09-2019 19:50:00 18.1 C 67 % 11.88 C
528 14-09-2019 19:55:00 17.9 C 67 % 11.69 C
529 14-09-2019 20:00:00 17.8 C 67 % 11.6 C
530 14-09-2019 20:05:00 17.6 C 69 % 11.85 C
531 14-09-2019 20:10:00 17.3 C 67 % 11.12 C
532 14-09-2019 20:15:00 17.2 C 68 % 11.25 C
533 14-09-2019 20:20:00 17.1 C 69 % 11.37 C
534 14-09-2019 20:25:00 17 C 69 % 11.28 C
535 14-09-2019 20:30:00 16.9 C 70 % 11.4 C
536 14-09-2019 20:35:00 16.7 C 73 % 11.84 C
537 14-09-2019 20:40:00 16.6 C 72 % 11.54 C
538 14-09-2019 20:45:00 16.5 C 72 % 11.44 C
539 14-09-2019 20:50:00 16.4 C 72 % 11.34 C
540 14-09-2019 20:55:00 16.4 C 73 % 11.55 C
541 14-09-2019 21:00:00 16.4 C 71 % 11.13 C
542 14-09-2019 21:05:00 16.4 C 71 % 11.13 C
543 14-09-2019 21:10:00 16.4 C 70 % 10.92 C
544 14-09-2019 21:15:00 16.4 C 72 % 11.34 C
545 14-09-2019 21:20:00 16.3 C 73 % 11.46 C
546 14-09-2019 21:25:00 16.2 C 72 % 11.15 C
547 14-09-2019 21:30:00 16.1 C 73 % 11.26 C
548 14-09-2019 21:35:00 15.9 C 74 % 11.28 C
549 14-09-2019 21:40:00 15.7 C 76 % 11.48 C
550 14-09-2019 21:45:00 15.5 C 76 % 11.29 C
Sensor: Nr:Datum:Temp:Feuchte:Taupunkt:
Aussen-T/F 551 14-09-2019 21:50:00 15.3 C 77 % 11.3 C
552 14-09-2019 21:55:00 15 C 78 % 11.2 C
553 14-09-2019 22:00:00 14.7 C 78 % 10.91 C
554 14-09-2019 22:05:00 14.4 C 79 % 10.81 C
555 14-09-2019 22:10:00 14.3 C 80 % 10.9 C
556 14-09-2019 22:15:00 14.1 C 80 % 10.71 C
557 14-09-2019 22:20:00 14 C 81 % 10.79 C
558 14-09-2019 22:25:00 13.8 C 81 % 10.6 C
559 14-09-2019 22:30:00 13.7 C 81 % 10.5 C
560 14-09-2019 22:35:00 13.6 C 82 % 10.59 C
561 14-09-2019 22:40:00 13.4 C 82 % 10.39 C
562 14-09-2019 22:45:00 13.3 C 83 % 10.48 C
563 14-09-2019 22:50:00 13.2 C 84 % 10.56 C
564 14-09-2019 22:55:00 13.1 C 84 % 10.46 C
565 14-09-2019 23:00:00 12.9 C 84 % 10.26 C
566 14-09-2019 23:05:00 12.9 C 84 % 10.26 C
567 14-09-2019 23:10:00 12.8 C 85 % 10.34 C
568 14-09-2019 23:15:00 12.7 C 85 % 10.25 C
569 14-09-2019 23:20:00 12.6 C 85 % 10.15 C
570 14-09-2019 23:25:00 12.5 C 86 % 10.22 C
571 14-09-2019 23:30:00 12.4 C 86 % 10.13 C
572 14-09-2019 23:35:00 12.3 C 86 % 10.03 C
573 14-09-2019 23:40:00 12.3 C 86 % 10.03 C
574 14-09-2019 23:45:00 12.2 C 86 % 9.93 C
575 14-09-2019 23:50:00 12.1 C 86 % 9.83 C
Sensor: Nr:Datum:Temp:Feuchte:Taupunkt:
Aussen-T/F 576 14-09-2019 23:55:00 12.1 C 86 % 9.83 C
577 15-09-2019 00:00:00 12 C 86 % 9.73 C
578 15-09-2019 00:05:00 11.9 C 87 % 9.81 C
579 15-09-2019 00:10:00 11.8 C 87 % 9.71 C
580 15-09-2019 00:15:00 11.8 C 87 % 9.71 C
581 15-09-2019 00:20:00 11.7 C 87 % 9.61 C
582 15-09-2019 00:25:00 11.6 C 88 % 9.68 C
583 15-09-2019 00:30:00 11.6 C 88 % 9.68 C
584 15-09-2019 00:35:00 11.6 C 88 % 9.68 C
585 15-09-2019 00:40:00 11.6 C 88 % 9.68 C
586 15-09-2019 00:45:00 11.5 C 88 % 9.58 C
587 15-09-2019 00:50:00 11.4 C 88 % 9.49 C
588 15-09-2019 00:55:00 11.3 C 88 % 9.39 C
589 15-09-2019 01:00:00 11.2 C 89 % 9.46 C
590 15-09-2019 01:05:00 11.2 C 89 % 9.46 C
591 15-09-2019 01:10:00 11.1 C 89 % 9.36 C
592 15-09-2019 01:15:00 10.9 C 89 % 9.16 C
593 15-09-2019 01:20:00 10.9 C 90 % 9.33 C
594 15-09-2019 01:25:00 10.8 C 90 % 9.23 C
595 15-09-2019 01:30:00 10.8 C 90 % 9.23 C
596 15-09-2019 01:35:00 10.7 C 90 % 9.13 C
597 15-09-2019 01:40:00 10.7 C 90 % 9.13 C
598 15-09-2019 01:45:00 10.6 C 90 % 9.03 C
599 15-09-2019 01:50:00 10.5 C 90 % 8.93 C
600 15-09-2019 01:55:00 10.5 C 91 % 9.09 C
Sensor: Nr:Datum:Temp:Feuchte:Taupunkt:
Aussen-T/F 601 15-09-2019 02:00:00 10.4 C 91 % 9 C
602 15-09-2019 02:05:00 10.5 C 91 % 9.09 C
603 15-09-2019 02:10:00 10.5 C 91 % 9.09 C
604 15-09-2019 02:15:00 10.4 C 92 % 9.16 C
605 15-09-2019 02:20:00 10.4 C 92 % 9.16 C
606 15-09-2019 02:25:00 10.4 C 92 % 9.16 C
607 15-09-2019 02:30:00 10.4 C 92 % 9.16 C
608 15-09-2019 02:35:00 10.4 C 92 % 9.16 C
609 15-09-2019 02:40:00 10.3 C 92 % 9.06 C
610 15-09-2019 02:45:00 10.3 C 92 % 9.06 C
611 15-09-2019 02:50:00 10.3 C 92 % 9.06 C
612 15-09-2019 02:55:00 10.2 C 92 % 8.96 C
613 15-09-2019 03:00:00 10.2 C 92 % 8.96 C
614 15-09-2019 03:05:00 10.3 C 93 % 9.22 C
615 15-09-2019 03:10:00 10.3 C 93 % 9.22 C
616 15-09-2019 03:15:00 10.3 C 93 % 9.22 C
617 15-09-2019 03:20:00 10.3 C 92 % 9.06 C
618 15-09-2019 03:25:00 10.1 C 92 % 8.86 C
619 15-09-2019 03:30:00 10.1 C 92 % 8.86 C
620 15-09-2019 03:35:00 10 C 92 % 8.76 C
621 15-09-2019 03:40:00 10.1 C 93 % 9.02 C
622 15-09-2019 03:45:00 10.2 C 93 % 9.12 C
623 15-09-2019 03:50:00 10.1 C 93 % 9.02 C
624 15-09-2019 03:55:00 10 C 93 % 8.92 C
625 15-09-2019 04:00:00 9.9 C 93 % 8.82 C
Sensor: Nr:Datum:Temp:Feuchte:Taupunkt:
Aussen-T/F 626 15-09-2019 04:05:00 9.9 C 93 % 8.82 C
627 15-09-2019 04:10:00 9.9 C 93 % 8.82 C
628 15-09-2019 04:15:00 9.9 C 93 % 8.82 C
629 15-09-2019 04:20:00 9.8 C 93 % 8.72 C
630 15-09-2019 04:25:00 9.8 C 93 % 8.72 C
631 15-09-2019 04:30:00 9.7 C 93 % 8.62 C
632 15-09-2019 04:35:00 9.7 C 93 % 8.62 C
633 15-09-2019 04:40:00 9.7 C 93 % 8.62 C
634 15-09-2019 04:45:00 9.6 C 93 % 8.53 C
635 15-09-2019 04:50:00 9.6 C 94 % 8.68 C
636 15-09-2019 04:55:00 9.6 C 93 % 8.53 C
637 15-09-2019 05:00:00 9.5 C 94 % 8.58 C
638 15-09-2019 05:05:00 9.5 C 94 % 8.58 C
639 15-09-2019 05:10:00 9.6 C 94 % 8.68 C
640 15-09-2019 05:15:00 9.5 C 94 % 8.58 C
641 15-09-2019 05:20:00 9.4 C 94 % 8.48 C
642 15-09-2019 05:25:00 9.3 C 94 % 8.39 C
643 15-09-2019 05:30:00 9.3 C 94 % 8.39 C
644 15-09-2019 05:35:00 9.3 C 94 % 8.39 C
645 15-09-2019 05:40:00 9.2 C 94 % 8.29 C
646 15-09-2019 05:45:00 9.1 C 94 % 8.19 C
647 15-09-2019 05:50:00 9.1 C 94 % 8.19 C
648 15-09-2019 05:55:00 9 C 94 % 8.09 C
649 15-09-2019 06:00:00 9 C 94 % 8.09 C
650 15-09-2019 06:05:00 9 C 94 % 8.09 C
Sensor: Nr:Datum:Temp:Feuchte:Taupunkt:
Aussen-T/F 651 15-09-2019 06:10:00 8.9 C 94 % 7.99 C
652 15-09-2019 06:15:00 8.8 C 94 % 7.89 C
653 15-09-2019 06:20:00 8.8 C 94 % 7.89 C
654 15-09-2019 06:25:00 8.8 C 94 % 7.89 C
655 15-09-2019 06:30:00 8.7 C 94 % 7.79 C
656 15-09-2019 06:35:00 8.7 C 94 % 7.79 C
657 15-09-2019 06:40:00 8.7 C 94 % 7.79 C
658 15-09-2019 06:45:00 8.6 C 94 % 7.69 C
659 15-09-2019 06:50:00 8.6 C 94 % 7.69 C
660 15-09-2019 06:55:00 8.6 C 95 % 7.85 C
661 15-09-2019 07:00:00 8.6 C 95 % 7.85 C
662 15-09-2019 07:05:00 8.6 C 95 % 7.85 C
663 15-09-2019 07:10:00 8.7 C 95 % 7.94 C
664 15-09-2019 07:15:00 8.8 C 95 % 8.04 C
665 15-09-2019 07:20:00 8.9 C 95 % 8.14 C
666 15-09-2019 07:25:00 8.9 C 95 % 8.14 C
667 15-09-2019 07:30:00 8.8 C 95 % 8.04 C
668 15-09-2019 07:35:00 8.8 C 95 % 8.04 C
669 15-09-2019 07:40:00 8.8 C 95 % 8.04 C
670 15-09-2019 07:45:00 8.8 C 95 % 8.04 C
671 15-09-2019 07:50:00 8.8 C 95 % 8.04 C
672 15-09-2019 07:55:00 8.8 C 95 % 8.04 C
673 15-09-2019 08:00:00 8.9 C 95 % 8.14 C
674 15-09-2019 08:05:00 9.1 C 96 % 8.5 C
675 15-09-2019 08:10:00 9.1 C 96 % 8.5 C
Sensor: Nr:Datum:Temp:Feuchte:Taupunkt:
Aussen-T/F 676 15-09-2019 08:15:00 9.2 C 96 % 8.6 C
677 15-09-2019 08:20:00 9.2 C 96 % 8.6 C
678 15-09-2019 08:25:00 9.2 C 96 % 8.6 C
679 15-09-2019 08:30:00 9.2 C 96 % 8.6 C
680 15-09-2019 08:35:00 9.3 C 96 % 8.7 C
681 15-09-2019 08:40:00 9.4 C 96 % 8.8 C
682 15-09-2019 08:45:00 9.6 C 96 % 8.99 C
683 15-09-2019 08:50:00 9.6 C 96 % 8.99 C
684 15-09-2019 08:55:00 9.7 C 96 % 9.09 C
685 15-09-2019 09:00:00 9.7 C 96 % 9.09 C
686 15-09-2019 09:05:00 9.8 C 96 % 9.19 C
687 15-09-2019 09:10:00 9.8 C 96 % 9.19 C
688 15-09-2019 09:15:00 9.8 C 96 % 9.19 C
689 15-09-2019 09:20:00 9.9 C 96 % 9.29 C
690 15-09-2019 09:25:00 9.9 C 96 % 9.29 C
691 15-09-2019 09:30:00 10 C 96 % 9.39 C
692 15-09-2019 09:35:00 10.1 C 96 % 9.49 C
693 15-09-2019 09:40:00 10.2 C 96 % 9.59 C
694 15-09-2019 09:45:00 10.3 C 96 % 9.69 C
695 15-09-2019 09:50:00 10.4 C 96 % 9.79 C
696 15-09-2019 09:55:00 10.5 C 96 % 9.89 C
697 15-09-2019 10:00:00 10.6 C 96 % 9.99 C
698 15-09-2019 10:05:00 10.7 C 96 % 10.09 C
699 15-09-2019 10:10:00 10.8 C 96 % 10.19 C
700 15-09-2019 10:15:00 10.9 C 96 % 10.29 C
Sensor: Nr:Datum:Temp:Feuchte:Taupunkt:
Aussen-T/F 701 15-09-2019 10:20:00 11.1 C 96 % 10.49 C
702 15-09-2019 10:25:00 11.2 C 96 % 10.59 C
703 15-09-2019 10:30:00 11.3 C 96 % 10.69 C
704 15-09-2019 10:35:00 11.5 C 96 % 10.88 C
705 15-09-2019 10:40:00 11.7 C 96 % 11.08 C
706 15-09-2019 10:45:00 11.9 C 96 % 11.28 C
707 15-09-2019 10:50:00 12.2 C 96 % 11.58 C
708 15-09-2019 10:55:00 12.4 C 96 % 11.78 C
709 15-09-2019 11:00:00 12.6 C 96 % 11.98 C
710 15-09-2019 11:05:00 12.8 C 96 % 12.18 C
711 15-09-2019 11:10:00 13 C 96 % 12.38 C
712 15-09-2019 11:15:00 13.2 C 95 % 12.42 C
713 15-09-2019 11:20:00 13.4 C 95 % 12.62 C
714 15-09-2019 11:25:00 13.6 C 95 % 12.81 C
715 15-09-2019 11:30:00 13.8 C 95 % 13.01 C
716 15-09-2019 11:35:00 14 C 95 % 13.21 C
717 15-09-2019 11:40:00 14.2 C 94 % 13.25 C
718 15-09-2019 11:45:00 14.4 C 94 % 13.45 C
719 15-09-2019 11:50:00 14.7 C 93 % 13.58 C
720 15-09-2019 11:55:00 14.9 C 93 % 13.78 C
721 15-09-2019 12:00:00 15.2 C 93 % 14.08 C
722 15-09-2019 12:05:00 15.4 C 92 % 14.11 C
723 15-09-2019 12:10:00 15.8 C 90 % 14.16 C
724 15-09-2019 12:15:00 16.2 C 89 % 14.39 C
725 15-09-2019 12:20:00 16.6 C 87 % 14.43 C
Sensor: Nr:Datum:Temp:Feuchte:Taupunkt:
Aussen-T/F 726 15-09-2019 12:25:00 16.8 C 86 % 14.45 C
727 15-09-2019 12:30:00 17.2 C 85 % 14.66 C
728 15-09-2019 12:35:00 17.5 C 84 % 14.77 C
729 15-09-2019 12:40:00 17.7 C 81 % 14.4 C
730 15-09-2019 12:45:00 18.1 C 81 % 14.79 C
731 15-09-2019 12:50:00 18.4 C 78 % 14.5 C
732 15-09-2019 12:55:00 18.7 C 78 % 14.79 C
733 15-09-2019 13:00:00 19 C 75 % 14.47 C
734 15-09-2019 13:05:00 19.3 C 75 % 14.76 C
735 15-09-2019 13:10:00 19.6 C 72 % 14.42 C
736 15-09-2019 13:15:00 19.9 C 73 % 14.92 C
737 15-09-2019 13:20:00 20.1 C 72 % 14.9 C
738 15-09-2019 13:25:00 20.4 C 69 % 14.52 C
739 15-09-2019 13:30:00 20.6 C 68 % 14.49 C
740 15-09-2019 13:35:00 20.9 C 68 % 14.77 C
741 15-09-2019 13:40:00 21.1 C 67 % 14.74 C
742 15-09-2019 13:45:00 21.3 C 67 % 14.93 C
743 15-09-2019 13:50:00 21.6 C 66 % 14.98 C
744 15-09-2019 13:55:00 21.7 C 66 % 15.07 C
745 15-09-2019 14:00:00 21.8 C 65 % 14.93 C
746 15-09-2019 14:05:00 22.1 C 64 % 14.97 C
747 15-09-2019 14:10:00 22.3 C 63 % 14.92 C
748 15-09-2019 14:15:00 22.5 C 62 % 14.86 C
749 15-09-2019 14:20:00 22.7 C 61 % 14.79 C
750 15-09-2019 14:25:00 22.8 C 61 % 14.89 C
Sensor: Nr:Datum:Temp:Feuchte:Taupunkt:
Aussen-T/F 751 15-09-2019 14:30:00 23 C 60 % 14.82 C
752 15-09-2019 14:35:00 23.1 C 59 % 14.65 C
753 15-09-2019 14:40:00 23.1 C 61 % 15.17 C
754 15-09-2019 14:45:00 23.2 C 59 % 14.75 C
755 15-09-2019 14:50:00 23.3 C 59 % 14.84 C
756 15-09-2019 14:55:00 23.6 C 59 % 15.12 C
757 15-09-2019 15:00:00 23.7 C 58 % 14.95 C
758 15-09-2019 15:05:00 23.8 C 58 % 15.04 C
759 15-09-2019 15:10:00 23.8 C 58 % 15.04 C
760 15-09-2019 15:15:00 23.9 C 57 % 14.87 C
761 15-09-2019 15:20:00 24.1 C 57 % 15.05 C
762 15-09-2019 15:25:00 24.1 C 56 % 14.78 C
763 15-09-2019 15:30:00 24.2 C 56 % 14.87 C
764 15-09-2019 15:35:00 24.2 C 56 % 14.87 C
765 15-09-2019 15:40:00 24.2 C 57 % 15.14 C
766 15-09-2019 15:45:00 24.2 C 56 % 14.87 C
767 15-09-2019 15:50:00 24.2 C 55 % 14.59 C
768 15-09-2019 15:55:00 24.2 C 55 % 14.59 C
769 15-09-2019 16:00:00 24.3 C 54 % 14.4 C
770 15-09-2019 16:05:00 24.3 C 54 % 14.4 C
771 15-09-2019 16:10:00 24.4 C 54 % 14.49 C
772 15-09-2019 16:15:00 24.4 C 53 % 14.2 C
773 15-09-2019 16:20:00 24.6 C 54 % 14.68 C
774 15-09-2019 16:25:00 24.6 C 53 % 14.39 C
775 15-09-2019 16:30:00 24.7 C 53 % 14.48 C
Sensor: Nr:Datum:Temp:Feuchte:Taupunkt:
Aussen-T/F 776 15-09-2019 16:35:00 24.8 C 53 % 14.57 C
777 15-09-2019 16:40:00 24.8 C 53 % 14.57 C
778 15-09-2019 16:45:00 24.9 C 52 % 14.37 C
779 15-09-2019 16:50:00 25 C 51 % 14.16 C
780 15-09-2019 16:55:00 25.1 C 50 % 13.95 C
781 15-09-2019 17:00:00 25.2 C 50 % 14.04 C
782 15-09-2019 17:05:00 25.3 C 51 % 14.44 C
783 15-09-2019 17:10:00 25.6 C 51 % 14.71 C
784 15-09-2019 17:15:00 25.8 C 50 % 14.59 C
785 15-09-2019 17:20:00 25.8 C 47 % 13.64 C
786 15-09-2019 17:25:00 25.8 C 48 % 13.96 C
787 15-09-2019 17:30:00 25.9 C 48 % 14.05 C
788 15-09-2019 17:35:00 26 C 47 % 13.82 C
789 15-09-2019 17:40:00 26.1 C 46 % 13.58 C
790 15-09-2019 17:45:00 26.2 C 45 % 13.33 C
791 15-09-2019 17:50:00 26.2 C 45 % 13.33 C
792 15-09-2019 17:55:00 26.2 C 45 % 13.33 C
793 15-09-2019 18:00:00 26.4 C 44 % 13.17 C
794 15-09-2019 18:05:00 26.6 C 45 % 13.69 C
795 15-09-2019 18:10:00 26.7 C 45 % 13.78 C
796 15-09-2019 18:15:00 26.8 C 46 % 14.21 C
797 15-09-2019 18:20:00 26.8 C 49 % 15.19 C
798 15-09-2019 18:25:00 26.8 C 42 % 12.82 C
799 15-09-2019 18:30:00 26.8 C 42 % 12.82 C
800 15-09-2019 18:35:00 26.7 C 48 % 14.78 C
Sensor: Nr:Datum:Temp:Feuchte:Taupunkt:
Aussen-T/F 801 15-09-2019 18:40:00 26.6 C 49 % 15.01 C
802 15-09-2019 18:45:00 26.1 C 47 % 13.91 C
803 15-09-2019 18:50:00 25.6 C 46 % 13.12 C
804 15-09-2019 18:55:00 25.3 C 49 % 13.82 C
805 15-09-2019 19:00:00 25.1 C 51 % 14.25 C
806 15-09-2019 19:05:00 24.7 C 51 % 13.89 C
807 15-09-2019 19:10:00 24.2 C 53 % 14.02 C
808 15-09-2019 19:15:00 23.5 C 53 % 13.37 C
809 15-09-2019 19:20:00 22.8 C 55 % 13.29 C
810 15-09-2019 19:25:00 22.1 C 57 % 13.19 C
811 15-09-2019 19:30:00 21.4 C 61 % 13.57 C
812 15-09-2019 19:35:00 20.8 C 61 % 13.01 C
813 15-09-2019 19:40:00 20.3 C 62 % 12.79 C
814 15-09-2019 19:45:00 19.8 C 61 % 12.07 C
815 15-09-2019 19:50:00 19.6 C 61 % 11.88 C
816 15-09-2019 19:55:00 19.3 C 62 % 11.84 C
817 15-09-2019 20:00:00 19.2 C 61 % 11.5 C
818 15-09-2019 20:05:00 19 C 62 % 11.56 C
819 15-09-2019 20:10:00 18.8 C 61 % 11.13 C
820 15-09-2019 20:15:00 18.6 C 62 % 11.18 C
821 15-09-2019 20:20:00 18.4 C 63 % 11.23 C
822 15-09-2019 20:25:00 18.3 C 63 % 11.14 C
823 15-09-2019 20:30:00 18.1 C 63 % 10.95 C
824 15-09-2019 20:35:00 17.9 C 64 % 11 C
825 15-09-2019 20:40:00 17.8 C 65 % 11.14 C
Sensor: Nr:Datum:Temp:Feuchte:Taupunkt:
Aussen-T/F 826 15-09-2019 20:45:00 17.7 C 66 % 11.27 C
827 15-09-2019 20:50:00 17.5 C 65 % 10.85 C
828 15-09-2019 20:55:00 17.4 C 65 % 10.76 C
829 15-09-2019 21:00:00 17.3 C 62 % 9.96 C
830 15-09-2019 21:05:00 17.4 C 64 % 10.53 C
831 15-09-2019 21:10:00 17.4 C 62 % 10.05 C
832 15-09-2019 21:15:00 17.3 C 64 % 10.43 C
833 15-09-2019 21:20:00 17.2 C 66 % 10.8 C
834 15-09-2019 21:25:00 17.1 C 67 % 10.93 C
835 15-09-2019 21:30:00 16.8 C 68 % 10.87 C
836 15-09-2019 21:35:00 16.6 C 69 % 10.89 C
837 15-09-2019 21:40:00 16.3 C 69 % 10.61 C
838 15-09-2019 21:45:00 16.1 C 70 % 10.63 C
839 15-09-2019 21:50:00 15.9 C 71 % 10.65 C
840 15-09-2019 21:55:00 15.8 C 72 % 10.77 C
841 15-09-2019 22:00:00 15.6 C 73 % 10.78 C
842 15-09-2019 22:05:00 15.4 C 74 % 10.79 C
843 15-09-2019 22:10:00 15.1 C 75 % 10.71 C
844 15-09-2019 22:15:00 14.8 C 75 % 10.42 C
845 15-09-2019 22:20:00 14.6 C 75 % 10.22 C
846 15-09-2019 22:25:00 14.4 C 77 % 10.42 C
847 15-09-2019 22:30:00 14.3 C 77 % 10.33 C
848 15-09-2019 22:35:00 14.2 C 77 % 10.23 C
849 15-09-2019 22:40:00 14.1 C 78 % 10.33 C
850 15-09-2019 22:45:00 13.9 C 78 % 10.13 C
Sensor: Nr:Datum:Temp:Feuchte:Taupunkt:
Aussen-T/F 851 15-09-2019 22:50:00 13.7 C 78 % 9.94 C
852 15-09-2019 22:55:00 13.6 C 79 % 10.03 C
853 15-09-2019 23:00:00 13.4 C 80 % 10.02 C
854 15-09-2019 23:05:00 13.3 C 80 % 9.93 C
855 15-09-2019 23:10:00 13.2 C 80 % 9.83 C
856 15-09-2019 23:15:00 13.1 C 81 % 9.92 C
857 15-09-2019 23:20:00 13.1 C 81 % 9.92 C
858 15-09-2019 23:25:00 13.1 C 81 % 9.92 C
859 15-09-2019 23:30:00 12.9 C 81 % 9.72 C
860 15-09-2019 23:35:00 12.9 C 82 % 9.9 C
861 15-09-2019 23:40:00 12.8 C 82 % 9.81 C
862 15-09-2019 23:45:00 12.8 C 82 % 9.81 C
863 15-09-2019 23:50:00 12.7 C 82 % 9.71 C
864 15-09-2019 23:55:00 12.6 C 83 % 9.79 C

Legende:
   Min
   Max


Maximal/Minimal-Werte vom 13.09.2019 - 15.09.2019

Sensor Min Max Avg
Temp
(Aussen-T/F)
8.6 °C
15-09-2019  06:45:00
26.8 °C
15-09-2019  18:15:00
16.25 °C
Feuchte
(Aussen-T/F)
42 %
15-09-2019  18:25:00
97 %
14-09-2019  09:00:00
82.62 %
Taupunkt
(Aussen-T/F)
7.69 C
15-09-2019  06:45:00
18.61 C
13-09-2019  18:40:00
12.92 C

Die Daten stammen von einer Davis Vantage Pro 2 Wetter-Station und werden unter Linux mit der Software wview2wettercgi und aufbereitet. Alle Angaben erfolgen ohne Gewähr für ihre Vollständigkeit oder Richtigkeit.
Kontakt: Rainer Krienke krienke@uni-koblenz.de . Meine Webseiten an der Uni Koblenz oder privat.
Version: $Revision: 0.78 $